createdAt,value
2019-02-18T00:01:43.066Z,65.87
2019-02-18T00:04:12.844Z,66.24
2019-02-18T00:06:42.638Z,65.99
2019-02-18T00:09:12.567Z,65.81
2019-02-18T00:11:42.443Z,65.63
2019-02-18T00:14:12.050Z,65.67
2019-02-18T00:16:41.869Z,65.81
2019-02-18T00:19:11.642Z,66.03
2019-02-18T00:21:41.324Z,65.64
2019-02-18T00:24:11.284Z,65.47
2019-02-18T00:26:40.959Z,65.43
2019-02-18T00:29:11.241Z,65.43
2019-02-18T00:31:41.485Z,65.33
2019-02-18T00:34:11.407Z,64.49
2019-02-18T00:36:41.056Z,63.12
2019-02-18T00:39:10.698Z,63.15
2019-02-18T00:41:40.371Z,63.03
2019-02-18T00:44:10.163Z,63.50
2019-02-18T00:46:40.147Z,63.90
2019-02-18T00:49:10.167Z,64.05
2019-02-18T00:51:41.423Z,64.54
2019-02-18T00:54:10.992Z,64.91
2019-02-18T00:56:40.602Z,64.36
2019-02-18T00:59:10.750Z,64.02
2019-02-18T01:01:42.977Z,63.59
2019-02-18T01:04:13.056Z,64.16
2019-02-18T01:06:42.686Z,63.27
2019-02-18T01:09:12.387Z,63.51
2019-02-18T01:11:42.481Z,63.25
2019-02-18T01:14:12.124Z,63.47
2019-02-18T01:16:41.786Z,64.33
2019-02-18T01:19:11.914Z,65.08
2019-02-18T01:21:42.329Z,65.03
2019-02-18T01:24:12.427Z,64.79
2019-02-18T01:26:42.250Z,64.96
2019-02-18T01:29:11.885Z,64.45
2019-02-18T01:31:43.219Z,64.28
2019-02-18T01:34:13.119Z,64.76
2019-02-18T01:36:42.984Z,65.03
2019-02-18T01:39:12.686Z,64.79
2019-02-18T01:41:42.648Z,64.43
2019-02-18T01:44:12.629Z,64.67
2019-02-18T01:46:42.229Z,63.99
2019-02-18T01:49:11.877Z,64.26
2019-02-18T01:51:41.495Z,64.20
2019-02-18T01:54:11.605Z,64.79
2019-02-18T01:56:41.204Z,65.51
2019-02-18T01:59:11.190Z,65.49
2019-02-18T02:01:41.047Z,64.86
2019-02-18T02:04:10.944Z,65.22
2019-02-18T02:06:40.896Z,65.57
2019-02-18T02:09:12.843Z,65.35
2019-02-18T02:11:43.083Z,64.15
2019-02-18T02:14:16.028Z,64.00
2019-02-18T02:16:45.984Z,64.12
2019-02-18T02:19:15.591Z,64.88
2019-02-18T02:21:45.491Z,65.18
2019-02-18T02:24:15.333Z,65.03
2019-02-18T02:26:45.024Z,65.38
2019-02-18T02:29:14.888Z,64.60
2019-02-18T02:31:45.175Z,63.32
2019-02-18T02:34:14.770Z,62.18
2019-02-18T02:36:45.235Z,61.29
2019-02-18T02:39:14.883Z,62.81
2019-02-18T02:41:44.749Z,63.25
2019-02-18T02:44:14.344Z,62.52
2019-02-18T02:46:44.291Z,62.07
2019-02-18T02:49:14.221Z,61.48
2019-02-18T02:51:43.830Z,61.48
2019-02-18T02:54:13.501Z,60.78
2019-02-18T02:56:43.175Z,61.12
2019-02-18T02:59:13.399Z,60.59
2019-02-18T03:01:43.873Z,61.47
2019-02-18T03:04:13.776Z,59.58
2019-02-18T03:06:43.904Z,58.38
2019-02-18T03:09:13.523Z,58.60
2019-02-18T03:11:43.107Z,57.80
2019-02-18T03:14:12.958Z,58.61
2019-02-18T03:16:42.783Z,59.42
2019-02-18T03:19:12.712Z,58.76
2019-02-18T03:21:42.610Z,60.10
2019-02-18T03:24:12.654Z,60.77
2019-02-18T03:26:42.243Z,59.89
2019-02-18T03:29:48.332Z,59.24
2019-02-18T03:32:18.419Z,59.98
2019-02-18T03:34:48.510Z,62.08
2019-02-18T03:37:18.582Z,63.05
2019-02-18T03:39:48.416Z,63.83
2019-02-18T03:42:18.555Z,64.01
2019-02-18T03:44:48.673Z,64.21
2019-02-18T03:47:18.558Z,63.68
2019-02-18T03:49:48.404Z,63.89
2019-02-18T03:52:18.606Z,63.99
2019-02-18T03:54:48.300Z,62.56
2019-02-18T03:57:18.176Z,61.44
2019-02-18T03:59:48.093Z,60.92
2019-02-18T04:02:18.212Z,61.05
2019-02-18T04:04:47.894Z,59.14
2019-02-18T04:07:17.792Z,58.84
2019-02-18T04:09:47.427Z,58.76
2019-02-18T04:12:17.132Z,57.77
2019-02-18T04:14:47.502Z,57.75
2019-02-18T04:17:17.330Z,57.52
2019-02-18T04:19:46.947Z,57.11
2019-02-18T04:22:16.813Z,58.25
2019-02-18T04:24:46.991Z,57.35
2019-02-18T04:27:16.884Z,57.44
2019-02-18T04:29:47.308Z,58.69
2019-02-18T04:32:17.382Z,58.85
2019-02-18T04:34:47.126Z,59.73
2019-02-18T04:37:17.744Z,61.42
2019-02-18T04:39:47.367Z,62.54
2019-02-18T04:42:17.207Z,63.29
2019-02-18T04:44:47.454Z,63.70
2019-02-18T04:47:17.415Z,63.18
2019-02-18T04:49:47.774Z,62.00
2019-02-18T04:52:19.161Z,63.70
2019-02-18T04:54:48.784Z,63.77
2019-02-18T04:57:18.779Z,63.68
2019-02-18T04:59:49.068Z,60.55
2019-02-18T05:02:19.806Z,60.20
2019-02-18T05:04:49.673Z,60.35
2019-02-18T05:07:19.316Z,60.93
2019-02-18T05:09:49.449Z,62.27
2019-02-18T05:12:19.114Z,63.08
2019-02-18T05:14:48.769Z,62.73
2019-02-18T05:17:18.581Z,62.63
2019-02-18T05:19:48.191Z,61.80
2019-02-18T05:22:17.828Z,62.31
2019-02-18T05:24:48.316Z,61.40
2019-02-18T05:27:17.942Z,62.30
2019-02-18T05:29:47.548Z,62.80
2019-02-18T05:32:17.156Z,62.48
2019-02-18T05:34:47.041Z,63.09
2019-02-18T05:37:16.693Z,64.14
2019-02-18T05:39:47.090Z,64.05
2019-02-18T05:42:17.406Z,64.54
2019-02-18T05:44:47.627Z,65.38
2019-02-18T05:47:17.566Z,64.78
2019-02-18T05:49:47.184Z,64.23
2019-02-18T05:52:16.814Z,62.96
2019-02-18T05:54:47.346Z,62.05
2019-02-18T05:57:18.134Z,60.90
2019-02-18T05:59:47.750Z,60.82
2019-02-18T06:02:18.991Z,60.82
2019-02-18T06:04:48.607Z,60.89
2019-02-18T06:07:18.484Z,61.07
2019-02-18T06:09:48.101Z,61.46
2019-02-18T06:12:17.730Z,61.57
2019-02-18T06:14:47.551Z,61.63
2019-02-18T06:17:17.425Z,61.06
2019-02-18T06:19:47.081Z,60.74
2019-02-18T06:22:16.691Z,60.16
2019-02-18T06:24:46.773Z,60.67
2019-02-18T06:27:17.893Z,60.61
2019-02-18T06:29:47.548Z,60.10
2019-02-18T06:32:17.535Z,58.90
2019-02-18T06:34:47.498Z,59.53
2019-02-18T06:37:17.715Z,59.69
2019-02-18T06:39:47.810Z,59.85
2019-02-18T06:42:18.049Z,59.47
2019-02-18T06:45:01.870Z,59.60
2019-02-18T06:47:31.469Z,59.23
2019-02-18T06:50:01.103Z,58.76
2019-02-18T06:52:32.627Z,59.01
2019-02-18T06:55:02.049Z,58.80
2019-02-18T06:57:37.064Z,58.51
2019-02-18T07:00:21.476Z,57.59
2019-02-18T07:02:58.218Z,57.60
2019-02-18T07:05:42.852Z,57.42
2019-02-18T07:08:37.664Z,57.75
2019-02-18T07:11:20.459Z,57.85
2019-02-18T07:13:50.058Z,57.67
2019-02-18T07:16:19.992Z,58.22
2019-02-18T07:18:49.664Z,57.75
2019-02-18T07:21:19.271Z,57.41
2019-02-18T07:23:48.900Z,57.82
2019-02-18T07:26:18.896Z,57.12
2019-02-18T07:28:48.509Z,56.56
2019-02-18T07:31:18.338Z,56.05
2019-02-18T07:33:48.573Z,56.11
2019-02-18T07:36:18.190Z,55.47
2019-02-18T07:38:47.812Z,55.11
2019-02-18T07:41:17.403Z,55.93
2019-02-18T07:43:47.309Z,54.16
2019-02-18T07:46:16.918Z,53.44
2019-02-18T07:48:46.533Z,52.95
2019-02-18T07:51:16.138Z,52.54
2019-02-18T07:53:45.970Z,53.26
2019-02-18T07:56:15.574Z,52.56
2019-02-18T07:58:45.662Z,52.64
2019-02-18T08:01:15.820Z,53.33
2019-02-18T08:03:45.672Z,54.46
2019-02-18T08:06:15.618Z,54.91
2019-02-18T08:08:47.869Z,55.17
2019-02-18T08:11:17.500Z,52.28
2019-02-18T08:13:47.684Z,51.17
2019-02-18T08:16:17.575Z,50.17
2019-02-18T08:18:47.441Z,49.61
2019-02-18T08:21:17.319Z,48.84
2019-02-18T08:23:47.479Z,48.39
2019-02-18T08:26:17.089Z,47.50
2019-02-18T08:28:46.683Z,47.36
2019-02-18T08:31:16.266Z,46.98
2019-02-18T08:33:45.859Z,46.91
2019-02-18T08:36:15.445Z,46.37
2019-02-18T08:38:45.063Z,46.31
2019-02-18T08:41:15.056Z,46.45
2019-02-18T08:43:45.162Z,45.79
2019-02-18T08:46:15.050Z,46.09
2019-02-18T08:48:44.804Z,45.49
2019-02-18T08:51:14.965Z,44.99
2019-02-18T08:53:45.034Z,44.31
2019-02-18T08:56:15.021Z,44.40
2019-02-18T08:58:45.508Z,43.61
2019-02-18T09:01:15.097Z,43.63
2019-02-18T09:03:45.160Z,43.21
2019-02-18T09:06:14.870Z,43.11
2019-02-18T09:08:45.098Z,43.11
2019-02-18T09:11:15.218Z,42.91
2019-02-18T09:13:45.139Z,42.84
2019-02-18T09:16:15.219Z,42.36
2019-02-18T09:18:45.481Z,41.99
2019-02-18T09:21:15.325Z,41.57
2019-02-18T09:23:52.528Z,41.46
2019-02-18T09:26:22.378Z,42.47
2019-02-18T09:28:51.984Z,41.67
2019-02-18T09:31:27.306Z,41.58
2019-02-18T09:33:56.934Z,41.25
2019-02-18T09:36:27.099Z,40.77
2019-02-18T09:38:56.722Z,40.85
2019-02-18T09:41:26.717Z,41.01
2019-02-18T09:43:56.739Z,40.89
2019-02-18T09:46:26.753Z,40.14
2019-02-18T09:48:56.922Z,40.73
2019-02-18T09:51:26.787Z,40.27
2019-02-18T09:53:56.430Z,39.51
2019-02-18T09:56:26.324Z,39.28
2019-02-18T09:58:56.749Z,39.41
2019-02-18T10:01:26.607Z,39.51
2019-02-18T10:03:56.781Z,39.09
2019-02-18T10:06:27.077Z,38.42
2019-02-18T10:08:57.095Z,38.17
2019-02-18T10:11:27.382Z,38.66
2019-02-18T10:13:57.732Z,38.31
2019-02-18T10:16:27.371Z,39.18
2019-02-18T10:18:57.326Z,39.45
2019-02-18T10:21:27.157Z,38.52
2019-02-18T10:23:57.004Z,38.72
2019-02-18T10:26:26.856Z,38.01
2019-02-18T10:28:56.524Z,38.52
2019-02-18T10:31:26.395Z,38.23
2019-02-18T10:33:56.326Z,38.15
2019-02-18T10:36:26.289Z,37.67
2019-02-18T10:38:56.377Z,37.63
2019-02-18T10:41:26.366Z,37.63
2019-02-18T10:43:56.622Z,37.79
2019-02-18T10:46:26.226Z,37.64
2019-02-18T10:48:56.103Z,36.83
2019-02-18T10:51:25.696Z,37.10
2019-02-18T10:53:55.331Z,37.24
2019-02-18T10:56:25.005Z,37.41
2019-02-18T10:58:54.643Z,37.60
2019-02-18T11:01:24.538Z,36.63
2019-02-18T11:03:54.593Z,36.24
2019-02-18T11:06:25.183Z,36.50
2019-02-18T11:08:54.790Z,35.82
2019-02-18T11:11:24.706Z,35.86
2019-02-18T11:13:54.678Z,35.25
2019-02-18T11:16:24.605Z,34.87
2019-02-18T11:18:55.086Z,34.80
2019-02-18T11:21:27.409Z,34.57
2019-02-18T11:23:57.032Z,35.86
2019-02-18T11:26:26.893Z,35.74
2019-02-18T11:28:56.523Z,36.20
2019-02-18T11:31:27.088Z,35.35
2019-02-18T11:33:57.165Z,34.42
2019-02-18T11:36:27.021Z,34.54
2019-02-18T11:38:56.653Z,35.09
2019-02-18T11:41:27.703Z,34.83
2019-02-18T11:43:57.858Z,34.14
2019-02-18T11:46:27.473Z,33.77
2019-02-18T11:48:57.325Z,34.23
2019-02-18T11:51:26.941Z,33.94
2019-02-18T11:53:56.799Z,34.57
2019-02-18T11:56:26.888Z,33.87
2019-02-18T11:58:56.506Z,33.51
2019-02-18T12:01:28.325Z,33.28
2019-02-18T12:03:57.897Z,33.54
2019-02-18T12:06:28.013Z,33.59
2019-02-18T12:08:58.251Z,33.91
2019-02-18T12:11:37.607Z,33.34
2019-02-18T12:13:59.599Z,32.60
2019-02-18T12:16:29.474Z,33.02
2019-02-18T12:18:59.802Z,32.72
2019-02-18T12:21:30.094Z,33.00
2019-02-18T12:24:00.134Z,34.23
2019-02-18T12:26:30.112Z,34.29
2019-02-18T12:29:00.182Z,34.09
2019-02-18T12:31:29.857Z,34.01
2019-02-18T12:33:59.999Z,34.70
2019-02-18T12:36:29.638Z,34.55
2019-02-18T12:38:59.294Z,34.26
2019-02-18T12:41:29.480Z,34.43
2019-02-18T12:43:59.421Z,34.40
2019-02-18T12:46:29.749Z,33.62
2019-02-18T12:48:59.843Z,33.98
2019-02-18T12:51:30.059Z,33.60
2019-02-18T12:54:05.005Z,34.47
2019-02-18T12:56:31.635Z,33.45
2019-02-18T12:59:01.831Z,33.46
2019-02-18T13:01:31.453Z,32.76
2019-02-18T13:04:01.083Z,32.69
2019-02-18T13:06:30.689Z,33.27
2019-02-18T13:09:00.533Z,33.34
2019-02-18T13:11:31.965Z,33.64
2019-02-18T13:14:01.810Z,33.28
2019-02-18T13:16:31.655Z,33.37
2019-02-18T13:19:01.528Z,33.37
2019-02-18T13:21:31.691Z,33.66
2019-02-18T13:24:01.761Z,33.56
2019-02-18T13:26:31.627Z,34.08
2019-02-18T13:29:01.489Z,34.67
2019-02-18T13:31:31.381Z,34.08
2019-02-18T13:34:01.346Z,33.87
2019-02-18T13:36:31.346Z,33.85
2019-02-18T13:39:01.349Z,33.61
2019-02-18T13:41:33.324Z,34.24
2019-02-18T13:44:02.980Z,35.02
2019-02-18T13:46:33.388Z,35.06
2019-02-18T13:49:03.032Z,34.75
2019-02-18T13:51:33.307Z,35.09
2019-02-18T13:54:03.695Z,34.96
2019-02-18T13:56:34.180Z,34.89
2019-02-18T13:59:04.318Z,34.63
2019-02-18T14:01:34.727Z,34.60
2019-02-18T14:04:04.702Z,35.09
2019-02-18T14:06:36.377Z,35.21
2019-02-18T14:09:06.814Z,35.26
2019-02-18T14:11:36.816Z,35.22
2019-02-18T14:14:06.413Z,34.95
2019-02-18T14:16:36.315Z,34.50
2019-02-18T14:19:07.310Z,34.80
2019-02-18T14:21:37.441Z,34.91
2019-02-18T14:24:07.453Z,34.54
2019-02-18T14:26:37.074Z,34.11
2019-02-18T14:29:07.207Z,34.41
2019-02-18T14:31:37.080Z,34.24
2019-02-18T14:34:07.104Z,34.55
2019-02-18T14:36:37.151Z,34.23
2019-02-18T14:39:11.404Z,35.03
2019-02-18T14:41:41.154Z,35.65
2019-02-18T14:44:11.184Z,35.71
2019-02-18T14:46:40.811Z,35.64
2019-02-18T14:49:11.444Z,36.03
2019-02-18T14:51:41.632Z,36.29
2019-02-18T14:54:11.668Z,35.92
2019-02-18T14:56:41.989Z,36.40
2019-02-18T14:59:11.604Z,36.81
2019-02-18T15:01:41.980Z,37.11
2019-02-18T15:04:11.855Z,37.19
2019-02-18T15:06:41.862Z,37.24
2019-02-18T15:09:11.594Z,36.21
2019-02-18T15:11:41.467Z,35.79
2019-02-18T15:14:11.544Z,36.58
2019-02-18T15:16:41.181Z,37.33
2019-02-18T15:19:11.947Z,37.71
2019-02-18T15:21:42.182Z,37.00
2019-02-18T15:24:12.148Z,37.62
2019-02-18T15:26:42.211Z,38.37
2019-02-18T15:29:11.814Z,38.70
2019-02-18T15:31:41.826Z,38.97
2019-02-18T15:34:12.006Z,39.64
2019-02-18T15:36:41.952Z,40.38
2019-02-18T15:39:12.151Z,40.47
2019-02-18T15:41:42.248Z,40.62
2019-02-18T15:44:12.087Z,41.06
2019-02-18T15:46:42.966Z,41.13
2019-02-18T15:49:12.856Z,39.62
2019-02-18T15:51:42.988Z,40.03
2019-02-18T15:54:14.316Z,40.19
2019-02-18T15:56:44.568Z,40.52
2019-02-18T15:59:14.169Z,41.10
2019-02-18T16:01:43.977Z,41.00
2019-02-18T16:04:13.882Z,41.50
2019-02-18T16:06:43.654Z,41.79
2019-02-18T16:09:13.916Z,42.09
2019-02-18T16:11:43.616Z,42.28
2019-02-18T16:14:13.508Z,42.44
2019-02-18T16:16:43.366Z,42.71
2019-02-18T16:19:13.045Z,42.78
2019-02-18T16:21:42.951Z,42.80
2019-02-18T16:24:19.668Z,42.92
2019-02-18T16:26:45.435Z,43.23
2019-02-18T16:29:15.360Z,43.50
2019-02-18T16:31:45.350Z,43.85
2019-02-18T16:34:19.388Z,44.15
2019-02-18T16:36:54.484Z,44.39
2019-02-18T16:39:24.544Z,44.78
2019-02-18T16:41:54.661Z,44.90
2019-02-18T16:44:24.557Z,45.20
2019-02-18T16:46:54.173Z,45.59
2019-02-18T16:49:24.201Z,45.29
2019-02-18T16:51:54.089Z,45.59
2019-02-18T16:54:24.433Z,45.85
2019-02-18T16:56:54.364Z,46.11
2019-02-18T16:59:24.215Z,46.17
2019-02-18T17:01:53.877Z,46.24
2019-02-18T17:04:23.925Z,46.17
2019-02-18T17:06:54.186Z,46.32
2019-02-18T17:09:28.097Z,46.62
2019-02-18T17:11:58.216Z,46.46
2019-02-18T17:14:29.048Z,46.84
2019-02-18T17:16:59.121Z,47.11
2019-02-18T17:19:31.762Z,47.21
2019-02-18T17:22:01.719Z,47.44
2019-02-18T17:24:31.936Z,47.65
2019-02-18T17:27:01.625Z,47.86
2019-02-18T17:29:31.289Z,47.83
2019-02-18T17:32:00.926Z,47.95
2019-02-18T17:34:30.860Z,48.47
2019-02-18T17:37:01.116Z,48.46
2019-02-18T17:39:31.848Z,48.95
2019-02-18T17:42:01.845Z,49.07
2019-02-18T17:44:33.208Z,49.16
2019-02-18T17:47:02.877Z,49.51
2019-02-18T17:49:32.828Z,49.45
2019-02-18T17:52:03.399Z,49.72
2019-02-18T17:54:33.553Z,49.84
2019-02-18T17:57:03.609Z,50.23
2019-02-18T17:59:33.245Z,50.38
2019-02-18T18:02:03.252Z,50.76
2019-02-18T18:04:33.454Z,50.76
2019-02-18T18:07:03.424Z,50.42
2019-02-18T18:09:33.395Z,50.32
2019-02-18T18:12:03.266Z,50.21
2019-02-18T18:14:32.893Z,49.95
2019-02-18T18:17:02.560Z,49.95
2019-02-18T18:19:33.105Z,50.06
2019-02-18T18:22:02.982Z,50.22
2019-02-18T18:24:32.623Z,50.37
2019-02-18T18:27:02.799Z,50.32
2019-02-18T18:29:32.761Z,50.63
2019-02-18T18:32:02.482Z,50.57
2019-02-18T18:34:32.358Z,50.19
2019-02-18T18:37:02.023Z,50.59
2019-02-18T18:39:32.270Z,50.77
2019-02-18T18:42:01.902Z,50.96
2019-02-18T18:44:31.524Z,51.33
2019-02-18T18:47:01.874Z,51.09
2019-02-18T18:49:31.971Z,51.54
2019-02-18T18:52:01.720Z,51.53
2019-02-18T18:54:31.632Z,51.63
2019-02-18T18:57:01.663Z,51.62
2019-02-18T18:59:31.653Z,52.10
2019-02-18T19:02:01.332Z,52.30
2019-02-18T19:04:31.267Z,52.46
2019-02-18T19:07:01.518Z,52.27
2019-02-18T19:09:31.215Z,52.73
2019-02-18T19:12:02.742Z,53.03
2019-02-18T19:14:32.635Z,53.12
2019-02-18T19:17:02.780Z,53.22
2019-02-18T19:19:32.988Z,53.29
2019-02-18T19:22:03.158Z,53.65
2019-02-18T19:24:32.994Z,54.03
2019-02-18T19:27:03.354Z,54.06
2019-02-18T19:29:33.075Z,54.28
2019-02-18T19:32:04.878Z,54.15
2019-02-18T19:34:34.645Z,54.43
2019-02-18T19:37:04.373Z,54.48
2019-02-18T19:39:35.114Z,55.10
2019-02-18T19:42:04.697Z,55.31
2019-02-18T19:44:35.348Z,54.83
2019-02-18T19:47:05.054Z,54.65
2019-02-18T19:49:35.037Z,54.27
2019-02-18T19:52:05.567Z,54.39
2019-02-18T19:54:35.630Z,54.40
2019-02-18T19:57:05.407Z,54.51
2019-02-18T19:59:35.078Z,54.65
2019-02-18T20:02:05.072Z,53.99
2019-02-18T20:04:34.967Z,53.51
2019-02-18T20:07:04.707Z,53.02
2019-02-18T20:09:34.481Z,52.39
2019-02-18T20:12:04.267Z,51.93
2019-02-18T20:14:33.995Z,50.39
2019-02-18T20:17:03.709Z,48.74
2019-02-18T20:19:33.740Z,47.56
2019-02-18T20:22:03.864Z,46.93
2019-02-18T20:24:33.549Z,46.48
2019-02-18T20:27:03.606Z,45.26
2019-02-18T20:29:33.976Z,44.43
2019-02-18T20:32:04.571Z,44.44
2019-02-18T20:34:34.425Z,44.49
2019-02-18T20:37:04.382Z,44.89
2019-02-18T20:39:34.307Z,44.70
2019-02-18T20:42:04.023Z,44.74
2019-02-18T20:44:33.828Z,45.26
2019-02-18T20:47:04.013Z,45.66
2019-02-18T20:49:36.007Z,45.67
2019-02-18T20:52:05.754Z,45.85
2019-02-18T20:54:35.515Z,45.94
2019-02-18T20:57:05.255Z,45.85
2019-02-18T20:59:35.551Z,46.14
2019-02-18T21:02:05.618Z,46.35
2019-02-18T21:04:35.613Z,46.11
2019-02-18T21:07:05.368Z,46.02
2019-02-18T21:09:35.367Z,46.35
2019-02-18T21:12:05.339Z,46.46
2019-02-18T21:14:35.049Z,46.76
2019-02-18T21:17:05.135Z,46.31
2019-02-18T21:19:35.617Z,46.46
2019-02-18T21:22:05.306Z,46.38
2019-02-18T21:24:39.518Z,46.37
2019-02-18T21:27:14.623Z,45.91
2019-02-18T21:29:45.236Z,45.99
2019-02-18T21:32:15.714Z,45.80
2019-02-18T21:34:45.718Z,45.75
2019-02-18T21:37:18.647Z,45.69
2019-02-18T21:39:51.273Z,45.79
2019-02-18T21:42:21.359Z,45.87
2019-02-18T21:44:51.098Z,46.09
2019-02-18T21:47:21.209Z,46.10
2019-02-18T21:49:51.114Z,46.28
2019-02-18T21:52:20.901Z,45.98
2019-02-18T21:54:54.779Z,46.08
2019-02-18T21:57:31.613Z,45.97
2019-02-18T22:00:05.659Z,46.15
2019-02-18T22:02:35.616Z,46.29
2019-02-18T22:05:05.360Z,46.33
2019-02-18T22:07:35.418Z,46.04
2019-02-18T22:10:05.429Z,46.07
2019-02-18T22:12:36.362Z,46.11
2019-02-18T22:15:06.320Z,46.17
2019-02-18T22:17:36.443Z,46.41
2019-02-18T22:20:07.184Z,46.29
2019-02-18T22:22:37.379Z,46.26
2019-02-18T22:25:08.475Z,46.26
2019-02-18T22:27:38.280Z,46.33
2019-02-18T22:30:09.493Z,46.66
2019-02-18T22:32:39.883Z,46.60
2019-02-18T22:35:10.168Z,46.56
2019-02-18T22:37:40.905Z,46.62
2019-02-18T22:40:10.968Z,46.58
2019-02-18T22:42:40.688Z,46.54
2019-02-18T22:45:10.457Z,46.29
2019-02-18T22:47:40.459Z,46.63
2019-02-18T22:50:10.229Z,46.46
2019-02-18T22:52:40.257Z,46.61
2019-02-18T22:55:10.157Z,46.60
2019-02-18T22:57:42.077Z,46.43
2019-02-18T23:00:20.554Z,46.21
2019-02-18T23:02:51.612Z,46.16
2019-02-18T23:05:21.734Z,46.56
2019-02-18T23:07:52.070Z,46.71
2019-02-18T23:10:22.109Z,46.41
2019-02-18T23:12:52.389Z,46.50
2019-02-18T23:15:22.001Z,46.37
2019-02-18T23:17:52.236Z,46.73
2019-02-18T23:20:22.227Z,47.04
2019-02-18T23:22:51.853Z,46.90
2019-02-18T23:25:21.950Z,46.89
2019-02-18T23:27:51.572Z,47.19
2019-02-18T23:30:21.704Z,47.35
2019-02-18T23:32:51.872Z,47.04
2019-02-18T23:35:22.097Z,47.24
2019-02-18T23:37:51.998Z,47.41
2019-02-18T23:40:21.750Z,47.19
2019-02-18T23:42:51.381Z,47.52
2019-02-18T23:45:21.062Z,47.26
2019-02-18T23:47:50.753Z,47.69
2019-02-18T23:50:20.755Z,47.50
2019-02-18T23:52:50.708Z,47.69
2019-02-18T23:55:20.835Z,47.66
2019-02-18T23:57:50.495Z,47.64
